Time;durP1;ratioP1;P1;durP2;ratioP2;P2;SDS_P1;SDS_P2;PMS_P1;PMS_P2;Temp;Humidity;BMP_temperature;BMP_pressure;BME280_temperature;BME280_humidity;BME280_pressure;Samples;Min_cycle;Max_cycle;Signal;HPM_P1;HPM_P2
2021/03/18 00:01:46;;;;;;;6.93;3.10;;;;;;;1.99;76.72;101184.59;20985980;28;20044;-71
2021/03/18 00:11:49;;;;;;;9.02;3.35;;;;;;;2.04;75.19;101177.69;20985287;28;20064;-71
2021/03/18 00:21:50;;;;;;;9.27;3.42;;;;;;;1.90;76.80;101175.19;20985786;28;20048;-72
2021/03/18 00:31:51;;;;;;;8.32;3.10;;;;;;;2.00;76.25;101160.50;20967072;28;20132;-72
2021/03/18 00:41:53;;;;;;;12.55;4.30;;;;;;;1.93;73.96;101177.75;20984958;28;20067;-71
2021/03/18 00:51:54;;;;;;;7.57;3.10;;;;;;;2.04;73.47;101188.88;20984047;28;20045;-71
2021/03/18 01:01:54;;;;;;;7.15;2.70;;;;;;;1.98;71.09;101160.50;20983072;28;20055;-71
2021/03/18 01:11:56;;;;;;;8.23;2.20;;;;;;;1.89;70.89;101139.06;20998969;28;20133;-71
2021/03/18 01:21:57;;;;;;;8.50;2.53;;;;;;;1.72;70.97;101139.19;20999020;28;20044;-70
2021/03/18 01:31:58;;;;;;;6.38;2.30;;;;;;;1.55;72.00;101148.75;20997582;28;20053;-71
2021/03/18 01:42:00;;;;;;;7.43;2.38;;;;;;;1.33;73.58;101152.28;20997117;28;20055;-71
2021/03/18 01:52:02;;;;;;;6.35;2.33;;;;;;;1.18;73.77;101132.59;20934363;28;20045;-70
2021/03/18 02:02:03;;;;;;;8.60;2.60;;;;;;;1.05;73.80;101136.97;20903801;28;20492;-71
2021/03/18 02:12:05;;;;;;;5.70;2.75;;;;;;;0.92;75.16;101140.41;20994994;28;20049;-71
2021/03/18 02:22:35;;;;;;;7.47;2.80;;;;;;;0.90;76.61;101134.44;20996289;28;20550;-71
2021/03/18 02:33:00;;;;;;;7.38;2.35;;;;;;;0.77;77.27;101150.75;20993444;28;20048;-71
2021/03/18 02:43:06;;;;;;;5.67;2.13;;;;;;;0.47;77.67;101161.97;20987646;28;20133;-71
2021/03/18 02:53:09;;;;;;;9.45;2.60;;;;;;;0.50;77.49;101154.28;20992630;28;20044;-71
2021/03/18 03:03:10;;;;;;;5.43;2.40;;;;;;;0.28;78.71;101150.00;20991104;28;20048;-71
2021/03/18 03:13:12;;;;;;;7.70;2.15;;;;;;;0.10;79.12;101150.00;20973122;28;20499;-71
2021/03/18 03:23:13;;;;;;;6.47;2.50;;;;;;;0.17;77.83;101149.13;20989827;28;20052;-71
2021/03/18 03:33:14;;;;;;;8.30;3.03;;;;;;;0.08;80.10;101156.84;20988128;28;20049;-71
2021/03/18 03:43:16;;;;;;;9.88;2.53;;;;;;;0.15;78.00;101154.28;20988205;28;20542;-70
2021/03/18 03:53:20;;;;;;;8.88;2.78;;;;;;;0.23;79.65;101152.56;20968343;28;20048;-71
2021/03/18 04:03:24;;;;;;;13.27;3.10;;;;;;;0.08;82.91;101156.84;20924954;28;20488;-70
2021/03/18 04:13:27;;;;;;;;;;;;;;;0.30;81.62;101158.59;20986435;28;20064;-70
2021/03/18 04:23:29;;;;;;;9.32;2.80;;;;;;;0.39;83.00;101159.44;20985608;28;20343;-71
2021/03/18 04:33:30;;;;;;;9.73;3.15;;;;;;;0.32;84.28;101146.53;20984492;28;20041;-70
2021/03/18 04:43:32;;;;;;;7.07;2.92;;;;;;;0.30;85.03;101151.72;20984252;28;20115;-71
2021/03/18 04:53:35;;;;;;;7.30;2.63;;;;;;;0.38;85.32;101156.84;20984258;28;20048;-70
2021/03/18 05:03:38;;;;;;;11.10;4.00;;;;;;;0.47;85.31;101150.81;20983524;28;20040;-71
2021/03/18 05:13:40;;;;;;;19.55;6.80;;;;;;;0.49;86.03;101146.53;20883098;28;20049;-71
2021/03/18 05:23:41;;;;;;;8.48;3.58;;;;;;;0.34;87.38;101144.84;20963510;23;20578;-69
2021/03/18 05:33:42;;;;;;;7.35;3.22;;;;;;;0.29;87.59;101144.00;20982667;28;20041;-69
2021/03/18 05:43:44;;;;;;;16.48;3.95;;;;;;;0.23;87.43;101146.56;20984038;28;20511;-70
2021/03/18 05:53:49;;;;;;;9.48;3.05;;;;;;;0.38;87.73;101154.28;20989119;28;20098;-70
2021/03/18 06:03:50;;;;;;;11.88;3.47;;;;;;;0.41;87.56;101159.41;20993662;28;20093;-70
2021/03/18 06:13:51;;;;;;;7.53;3.03;;;;;;;0.44;88.91;101151.69;20996281;28;20044;-70
2021/03/18 06:24:00;;;;;;;8.93;3.53;;;;;;;0.56;87.26;101150.84;20994395;28;20052;-70
2021/03/18 06:34:01;;;;;;;10.13;4.22;;;;;;;0.68;86.65;101153.38;20992721;28;20056;-70
2021/03/18 06:44:05;;;;;;;12.02;3.90;;;;;;;0.85;84.10;101149.03;20992976;28;20075;-70
2021/03/18 06:54:19;;;;;;;7.63;3.72;;;;;;;1.03;79.38;101145.53;20992697;28;20178;-69
2021/03/18 07:04:31;;;;;;;9.95;3.67;;;;;;;1.23;78.66;101143.75;20990085;28;20124;-69
2021/03/18 07:14:45;;;;;;;8.88;2.97;;;;;;;1.38;73.42;101148.81;20991393;28;20589;-70
2021/03/18 07:24:55;;;;;;;11.50;3.63;;;;;;;1.60;72.91;101165.91;20990154;28;20045;-70
2021/03/18 07:34:56;;;;;;;12.30;5.25;;;;;;;1.70;72.86;101157.25;20972925;28;20049;-70
2021/03/18 07:44:57;;;;;;;12.60;4.93;;;;;;;1.80;72.59;101144.28;20989528;28;20132;-70
2021/03/18 07:55:00;;;;;;;12.77;4.97;;;;;;;2.02;76.26;101145.88;20986650;28;20045;-70
2021/03/18 08:05:02;;;;;;;10.27;4.50;;;;;;;2.23;73.73;101142.25;20977402;28;20044;-70
2021/03/18 08:15:22;;;;;;;12.35;4.85;;;;;;;2.47;75.13;101140.31;20935115;28;20049;-70
2021/03/18 08:25:23;;;;;;;13.40;4.47;;;;;;;2.66;70.60;101120.31;20954264;28;20303;-70
2021/03/18 08:35:26;;;;;;;9.93;4.13;;;;;;;2.99;68.84;101119.09;21000513;28;20048;-71
2021/03/18 08:45:33;;;;;;;11.32;4.25;;;;;;;3.52;68.75;101112.34;20996242;28;20515;-69
2021/03/18 08:55:42;;;;;;;8.98;4.03;;;;;;;3.84;67.98;101105.00;20992310;28;20045;-69
2021/03/18 09:05:58;;;;;;;9.73;4.22;;;;;;;4.01;66.70;101113.34;20955602;28;20048;-69
2021/03/18 09:16:00;;;;;;;16.77;4.85;;;;;;;3.98;66.76;101103.03;20978723;28;20076;-69
2021/03/18 09:26:04;;;;;;;10.60;4.38;;;;;;;4.29;65.37;101090.41;20986000;28;20450;-69
2021/03/18 09:36:14;;;;;;;11.23;4.32;;;;;;;4.80;62.73;101088.59;20994023;28;20480;-69
2021/03/18 09:46:24;;;;;;;9.00;3.50;;;;;;;5.12;57.26;101086.22;20986969;28;20048;-69
2021/03/18 09:56:25;;;;;;;12.43;4.45;;;;;;;5.48;62.91;101078.53;20981838;28;20036;-69
2021/03/18 10:06:29;;;;;;;9.15;4.28;;;;;;;5.69;62.90;101065.03;20995567;28;20041;-69
2021/03/18 10:16:38;;;;;;;11.15;4.63;;;;;;;5.56;59.74;101055.81;20986462;28;20110;-69
2021/03/18 10:26:41;;;;;;;9.20;4.00;;;;;;;5.87;59.97;101041.25;20983744;28;20496;-69
2021/03/18 10:36:42;;;;;;;8.25;4.07;;;;;;;6.17;55.88;101039.63;20987524;28;20504;-69
2021/03/18 10:46:43;;;;;;;14.65;3.65;;;;;;;6.33;56.65;101033.13;20989517;28;20416;-69
2021/03/18 10:56:45;;;;;;;7.15;3.38;;;;;;;6.34;56.32;101015.78;20989384;28;20060;-69
2021/03/18 11:06:50;;;;;;;8.00;3.90;;;;;;;6.77;54.13;101011.09;20974545;28;20549;-70
2021/03/18 11:17:03;;;;;;;10.43;4.00;;;;;;;7.00;50.90;101001.75;20985623;28;20063;-70
2021/03/18 11:27:05;;;;;;;5.13;1.90;;;;;;;6.77;42.53;100987.66;20984846;28;20147;-70
2021/03/18 11:37:12;;;;;;;6.13;2.50;;;;;;;7.20;47.67;100981.19;20961803;28;20106;-69
2021/03/18 11:47:14;;;;;;;7.53;2.70;;;;;;;7.00;46.71;100968.78;20967223;28;20506;-69
2021/03/18 11:57:15;;;;;;;8.60;2.60;;;;;;;7.38;45.82;100958.91;20973864;28;20262;-69
2021/03/18 12:07:17;;;;;;;7.93;2.25;;;;;;;7.11;46.10;100945.03;20973839;28;20040;-70
2021/03/18 12:17:18;;;;;;;11.50;2.45;;;;;;;7.19;46.57;100935.22;20964722;28;20090;-71
2021/03/18 12:27:19;;;;;;;7.75;2.80;;;;;;;6.99;47.45;100927.19;20970587;28;20568;-70
2021/03/18 12:37:20;;;;;;;5.72;2.65;;;;;;;7.39;45.80;100916.34;20938026;28;20380;-70
2021/03/18 12:47:21;;;;;;;8.77;2.90;;;;;;;7.86;45.49;100896.50;20974002;28;20393;-70
2021/03/18 12:57:22;;;;;;;9.57;2.85;;;;;;;7.74;43.91;100879.53;20982632;28;20044;-70
2021/03/18 13:07:23;;;;;;;6.72;2.72;;;;;;;6.65;49.01;100871.00;21013894;28;20105;-70
2021/03/18 13:17:24;;;;;;;6.50;2.78;;;;;;;6.20;49.12;100870.59;20971871;28;20503;-70
2021/03/18 13:27:26;;;;;;;8.02;2.83;;;;;;;6.50;46.69;100866.25;20999365;28;20136;-70
2021/03/18 13:37:27;;;;;;;6.70;2.95;;;;;;;6.48;48.18;100855.03;21015072;28;20039;-70
2021/03/18 13:47:28;;;;;;;6.75;2.13;;;;;;;6.75;48.02;100836.00;20967020;28;20045;-70
2021/03/18 13:57:30;;;;;;;5.53;1.60;;;;;;;7.08;44.83;100827.97;20981330;28;20135;-70
2021/03/18 14:07:31;;;;;;;7.20;2.40;;;;;;;7.03;51.34;100809.06;20997078;28;20131;-70
2021/03/18 14:17:33;;;;;;;6.60;2.30;;;;;;;7.36;47.02;100794.06;20989956;28;20066;-70
2021/03/18 14:27:36;;;;;;;7.82;2.30;;;;;;;7.30;44.67;100779.50;20986308;28;20049;-70
2021/03/18 14:37:58;;;;;;;11.52;2.97;;;;;;;7.54;47.85;100763.00;20995009;28;20049;-70
2021/03/18 14:47:59;;;;;;;5.93;2.47;;;;;;;8.02;46.33;100746.47;20981053;28;20049;-70
2021/03/18 14:58:01;;;;;;;4.00;2.05;;;;;;;8.36;47.76;100736.47;20986813;28;20053;-70
2021/03/18 15:08:03;;;;;;;4.97;2.10;;;;;;;8.35;45.99;100713.91;20985203;28;20044;-71
2021/03/18 15:18:04;;;;;;;6.00;2.40;;;;;;;8.15;46.32;100717.25;20985443;28;20112;-70
2021/03/18 15:28:11;;;;;;;5.72;2.30;;;;;;;7.49;47.05;100705.03;20984252;28;20491;-70
2021/03/18 15:38:12;;;;;;;7.32;2.33;;;;;;;7.23;47.70;100707.72;20970903;28;20393;-70
2021/03/18 15:48:14;;;;;;;5.22;2.42;;;;;;;7.27;47.77;100688.47;20961211;28;20041;-69
2021/03/18 15:58:19;;;;;;;4.88;2.10;;;;;;;6.98;48.47;100675.66;20959409;28;20097;-69
2021/03/18 16:08:20;;;;;;;6.63;2.28;;;;;;;6.93;48.03;100670.59;21001816;28;20497;-69
2021/03/18 16:18:23;;;;;;;4.32;1.77;;;;;;;6.67;47.91;100679.31;21006841;28;20097;-70
2021/03/18 16:28:24;;;;;;;6.65;2.50;;;;;;;5.79;58.37;100679.50;20988543;28;20040;-70
2021/03/18 16:38:26;;;;;;;8.38;2.50;;;;;;;5.94;54.99;100668.69;20984120;28;20071;-70
2021/03/18 16:48:33;;;;;;;5.75;3.05;;;;;;;6.09;54.77;100650.94;20977069;28;20058;-70
2021/03/18 16:58:37;;;;;;;5.88;2.30;;;;;;;5.91;53.04;100641.94;20979891;28;20067;-69
2021/03/18 17:08:38;;;;;;;6.20;1.92;;;;;;;5.72;57.31;100627.81;21016190;28;20041;-70
2021/03/18 17:18:39;;;;;;;7.00;1.88;;;;;;;5.58;58.94;100612.66;20974325;28;20514;-71
2021/03/18 17:28:40;;;;;;;18.73;7.43;;;;;;;5.36;60.46;100606.41;20956599;28;20049;-70
2021/03/18 17:38:41;;;;;;;5.40;2.63;;;;;;;5.15;60.24;100593.16;20960353;28;20098;-69
2021/03/18 17:48:42;;;;;;;10.38;3.40;;;;;;;4.94;60.79;100588.59;20977922;28;20068;-70
2021/03/18 17:58:44;;;;;;;6.47;2.83;;;;;;;4.75;62.01;100587.41;20959032;28;20049;-70
2021/03/18 18:08:45;;;;;;;5.30;2.15;;;;;;;4.42;63.93;100583.13;20973019;28;20569;-69
2021/03/18 18:18:46;;;;;;;5.00;2.30;;;;;;;4.25;65.56;100578.38;20970126;28;20511;-70
2021/03/18 18:28:47;;;;;;;7.50;3.47;;;;;;;4.12;67.52;100577.81;20973855;28;20508;-69
2021/03/18 18:38:49;;;;;;;7.90;4.70;;;;;;;4.15;66.92;100574.31;20975521;28;20447;-69
2021/03/18 18:48:50;;;;;;;7.70;3.35;;;;;;;4.16;67.03;100576.03;20982692;28;20053;-70
2021/03/18 18:58:51;;;;;;;7.80;3.50;;;;;;;4.15;65.87;100561.38;20991794;28;20053;-69
2021/03/18 19:08:53;;;;;;;10.00;4.65;;;;;;;4.20;64.77;100557.78;20981853;28;20053;-70
2021/03/18 19:18:54;;;;;;;6.30;2.53;;;;;;;4.24;64.84;100559.38;20963554;28;20427;-69
2021/03/18 19:28:55;;;;;;;6.40;2.33;;;;;;;4.18;65.74;100544.00;20987220;28;20053;-69
2021/03/18 19:38:56;;;;;;;8.80;2.72;;;;;;;4.24;68.14;100540.41;20982635;28;20083;-70
2021/03/18 19:48:57;;;;;;;9.02;3.13;;;;;;;4.24;66.44;100536.06;20988935;28;20048;-70
2021/03/18 19:58:58;;;;;;;16.17;8.18;;;;;;;4.20;68.79;100529.28;20981870;28;20076;-69
2021/03/18 20:09:00;;;;;;;5.65;2.75;;;;;;;3.96;68.91;100532.50;20977111;28;20071;-69
2021/03/18 20:19:01;;;;;;;17.30;7.55;;;;;;;3.99;72.80;100521.19;20984108;28;20094;-70
2021/03/18 20:29:03;;;;;;;17.52;7.60;;;;;;;4.09;74.04;100507.13;20983157;28;20136;-70
2021/03/18 20:39:06;;;;;;;12.57;6.53;;;;;;;4.23;72.36;100502.41;20972619;28;20032;-68
2021/03/18 20:49:08;;;;;;;14.57;6.18;;;;;;;4.04;72.70;100488.25;20982472;28;20056;-69
2021/03/18 20:59:08;;;;;;;18.13;9.68;;;;;;;4.09;75.25;100479.50;20982074;28;20044;-69
2021/03/18 21:09:09;;;;;;;14.20;6.85;;;;;;;3.81;77.94;100478.47;20971649;28;20032;-69
2021/03/18 21:19:11;;;;;;;20.60;10.50;;;;;;;4.08;73.63;100485.56;20983687;28;20428;-70
2021/03/18 21:29:12;;;;;;;17.83;10.18;;;;;;;4.02;78.00;100485.72;20998549;28;20052;-69
2021/03/18 21:39:13;;;;;;;15.25;6.88;;;;;;;3.92;81.19;100491.16;20979467;28;20036;-69
2021/03/18 21:49:16;;;;;;;14.85;6.47;;;;;;;3.55;85.64;100489.50;20981716;28;20045;-70
2021/03/18 21:59:17;;;;;;;14.45;7.25;;;;;;;3.42;90.10;100483.75;20959011;28;20044;-69
2021/03/18 22:09:18;;;;;;;14.32;7.60;;;;;;;3.17;94.14;100477.47;20973706;28;20040;-69
2021/03/18 22:19:19;;;;;;;18.25;7.68;;;;;;;3.07;96.66;100467.34;20976463;28;20044;-69
2021/03/18 22:29:20;;;;;;;18.35;7.78;;;;;;;3.06;95.36;100474.25;20987246;28;20048;-69
2021/03/18 22:39:22;;;;;;;17.00;8.40;;;;;;;3.05;96.39;100457.03;21041149;28;20067;-68
2021/03/18 22:49:23;;;;;;;18.02;8.57;;;;;;;2.89;99.34;100450.53;21100159;28;20048;-68
2021/03/18 22:59:24;;;;;;;18.58;9.00;;;;;;;2.60;100.00;100443.41;21103294;28;20052;-68
2021/03/18 23:09:25;;;;;;;23.85;9.93;;;;;;;2.48;100.00;100439.38;21009708;28;20131;-68
2021/03/18 23:19:32;;;;;;;20.58;9.93;;;;;;;2.29;100.00;100435.41;20990703;28;20044;-68
2021/03/18 23:29:33;;;;;;;23.90;11.05;;;;;;;2.14;100.00;100427.97;20989822;28;20044;-67
2021/03/18 23:39:36;;;;;;;23.05;11.10;;;;;;;2.08;100.00;100421.19;21038029;28;20054;-68
2021/03/18 23:49:37;;;;;;;21.75;10.60;;;;;;;1.94;100.00;100419.78;21048786;22;20052;-69
2021/03/18 23:59:38;;;;;;;21.75;10.82;;;;;;;1.90;100.00;100416.41;20892049;28;20052;-68
